Time;durP1;ratioP1;P1;durP2;ratioP2;P2;SDS_P1;SDS_P2;PMS_P1;PMS_P2;Temp;Humidity;BMP_temperature;BMP_pressure;BME280_temperature;BME280_humidity;BME280_pressure;Samples;Min_cycle;Max_cycle;Signal;HPM_P1;HPM_P2
2021/09/17 00:01:04;;;;;;;;;;;;;;;22.14;84.22;101463.44;7282110;19;153852;-51
2021/09/17 00:03:31;;;;;;;;;;;;;;;22.14;84.18;101466.28;7284073;19;151732;-51
2021/09/17 00:05:58;;;;;;;;;;;;;;;22.15;84.17;101456.69;7283494;19;154122;-50
2021/09/17 00:08:25;;;;;;;;;;;;;;;22.14;84.38;101455.00;7289815;19;154372;-52
2021/09/17 00:10:52;;;;;;;;;;;;;;;22.16;84.44;101461.19;7282261;19;152770;-52
2021/09/17 00:13:19;;;;;;;;;;;;;;;22.13;84.45;101453.34;7279687;19;153473;-50
2021/09/17 00:15:45;;;;;;;;;;;;;;;22.15;84.73;101448.25;7283142;19;152053;-51
2021/09/17 00:18:13;;;;;;;;;;;;;;;22.15;84.69;101461.47;7282998;19;152865;-50
2021/09/17 00:20:39;;;;;;;;;;;;;;;22.16;84.83;101460.34;7282628;19;153532;-51
2021/09/17 00:23:06;;;;;;;;;;;;;;;22.15;85.12;101461.47;7283293;19;151908;-50
2021/09/17 00:25:34;;;;;;;;;;;;;;;22.15;84.93;101465.13;7282228;19;151811;-52
2021/09/17 00:28:00;;;;;;;;;;;;;;;22.15;84.74;101461.47;7279798;19;153363;-51
2021/09/17 00:30:29;;;;;;;;;;;;;;;22.16;84.69;101458.38;7287995;19;152289;-52
2021/09/17 00:32:56;;;;;;;;;;;;;;;22.14;84.93;101463.44;7278852;19;154145;-51
2021/09/17 00:35:24;;;;;;;;;;;;;;;22.13;84.56;101458.97;7281071;19;152030;-51
2021/09/17 00:37:52;;;;;;;;;;;;;;;22.13;84.56;101458.97;7282723;19;153574;-51
2021/09/17 00:40:18;;;;;;;;;;;;;;;22.16;84.68;101461.19;7278479;19;153038;-51
2021/09/17 00:42:46;;;;;;;;;;;;;;;22.15;84.30;101453.03;7280094;19;152608;-51
2021/09/17 00:45:13;;;;;;;;;;;;;;;22.16;84.76;101451.91;7282426;19;152620;-51
2021/09/17 00:47:41;;;;;;;;;;;;;;;22.13;84.78;101442.06;7282193;19;153555;-51
2021/09/17 00:50:10;;;;;;;;;;;;;;;22.15;84.74;101450.22;7288088;19;155247;-50
2021/09/17 00:52:37;;;;;;;;;;;;;;;22.16;84.63;101451.91;7280104;19;153535;-51
2021/09/17 00:55:05;;;;;;;;;;;;;;;22.14;84.71;101448.53;7282741;19;151906;-51
2021/09/17 00:57:32;;;;;;;;;;;;;;;22.13;84.22;101447.69;7279063;19;153180;-51
2021/09/17 00:59:59;;;;;;;;;;;;;;;22.14;84.55;101445.72;7278807;19;153158;-52
2021/09/17 01:02:26;;;;;;;;;;;;;;;22.15;84.72;101445.44;7276578;19;152329;-51
2021/09/17 01:04:53;;;;;;;;;;;;;;;22.15;84.17;101441.78;7281850;19;152933;-52
2021/09/17 01:07:20;;;;;;;;;;;;;;;22.13;84.48;101436.44;7278854;19;154470;-51
2021/09/17 01:09:48;;;;;;;;;;;;;;;22.14;84.03;101428.84;7279104;19;152377;-51
2021/09/17 01:12:15;;;;;;;;;;;;;;;22.13;84.18;101425.19;7286154;19;152674;-52
2021/09/17 01:14:42;;;;;;;;;;;;;;;22.15;84.06;101419.25;7280108;19;151734;-51
2021/09/17 01:17:09;;;;;;;;;;;;;;;22.13;83.85;101419.56;7281706;19;152816;-52
2021/09/17 01:19:36;;;;;;;;;;;;;;;22.11;84.19;101415.41;7277889;19;153885;-52
2021/09/17 01:22:05;;;;;;;;;;;;;;;22.13;84.40;101415.91;7281327;19;151943;-51
2021/09/17 01:24:32;;;;;;;;;;;;;;;22.10;84.04;101411.75;7282173;19;153624;-51
2021/09/17 01:26:59;;;;;;;;;;;;;;;22.10;84.08;101414.56;7278558;19;153162;-51
2021/09/17 01:29:26;;;;;;;;;;;;;;;22.10;83.86;101411.75;7280448;19;153567;-51
2021/09/17 01:31:53;;;;;;;;;;;;;;;22.11;84.28;101413.41;7276093;19;153230;-51
2021/09/17 01:34:22;;;;;;;;;;;;;;;22.12;84.01;101412.25;7283793;19;153794;-51
2021/09/17 01:36:50;;;;;;;;;;;;;;;22.10;83.66;101406.13;7279780;19;153703;-51
2021/09/17 01:39:17;;;;;;;;;;;;;;;22.10;84.02;101403.28;7277019;19;153425;-51
2021/09/17 01:41:45;;;;;;;;;;;;;;;22.12;84.16;101417.06;7279508;19;151910;-51
2021/09/17 01:44:13;;;;;;;;;;;;;;;22.14;83.70;101406.31;7274704;19;153369;-50
2021/09/17 01:46:41;;;;;;;;;;;;;;;22.12;83.87;101403.00;7278580;19;153549;-51
2021/09/17 01:49:08;;;;;;;;;;;;;;;22.13;83.62;101399.00;7281201;19;152647;-51
2021/09/17 01:51:35;;;;;;;;;;;;;;;22.13;83.63;101399.84;7277881;19;152894;-51
2021/09/17 01:54:04;;;;;;;;;;;;;;;22.11;83.53;101396.53;7285003;19;153974;-51
2021/09/17 01:56:33;;;;;;;;;;;;;;;22.13;83.62;101397.03;7295456;19;151954;-52
2021/09/17 01:59:00;;;;;;;;;;;;;;;22.11;83.54;101404.97;7285623;19;153402;-51
2021/09/17 02:01:27;;;;;;;;;;;;;;;22.11;83.70;101399.34;7286026;19;151966;-52
2021/09/17 02:04:06;;;;;;;;;;;;;;;22.11;83.38;101393.72;7284602;19;152154;-52
2021/09/17 02:06:58;;;;;;;;;;;;;;;22.09;83.45;101389.53;7286812;19;152959;-51
2021/09/17 02:09:53;;;;;;;;;;;;;;;22.08;83.19;101385.88;7283677;19;152263;-52
2021/09/17 02:12:45;;;;;;;;;;;;;;;22.10;83.64;101386.41;7282667;19;155692;-51
2021/09/17 02:15:27;;;;;;;;;;;;;;;22.09;83.17;101381.09;7284541;19;152950;-51
2021/09/17 02:18:11;;;;;;;;;;;;;;;22.10;83.20;101386.41;7287365;19;152806;-51
2021/09/17 02:21:01;;;;;;;;;;;;;;;22.10;83.32;101380.78;7293353;19;152337;-52
2021/09/17 02:24:02;;;;;;;;;;;;;;;22.07;83.08;101375.78;7285080;19;151675;-52
2021/09/17 02:26:52;;;;;;;;;;;;;;;22.09;83.24;101372.63;7286058;19;153210;-50
2021/09/17 02:29:37;;;;;;;;;;;;;;;22.08;83.45;101380.25;7285906;19;152319;-52
2021/09/17 02:32:13;;;;;;;;;;;;;;;22.10;83.11;101382.75;7284250;19;151548;-52
2021/09/17 02:34:40;;;;;;;;;;;;;;;22.10;82.92;101379.94;7279622;19;153560;-51
2021/09/17 02:37:07;;;;;;;;;;;;;;;22.08;82.60;101373.78;7283791;19;152573;-51
2021/09/17 02:39:34;;;;;;;;;;;;;;;22.06;82.70;101378.91;7285731;19;152323;-52
2021/09/17 02:42:04;;;;;;;;;;;;;;;22.08;82.71;101376.59;7284114;19;155595;-51
2021/09/17 02:44:31;;;;;;;;;;;;;;;22.06;82.75;101368.47;7292769;19;151608;-51
2021/09/17 02:46:58;;;;;;;;;;;;;;;22.05;83.20;101366.81;7284542;19;153463;-52
2021/09/17 02:49:25;;;;;;;;;;;;;;;22.06;82.88;101359.19;7284764;19;153646;-51
2021/09/17 02:51:52;;;;;;;;;;;;;;;22.03;83.17;101366.25;7283938;19;152309;-51
2021/09/17 02:54:19;;;;;;;;;;;;;;;22.03;83.19;101368.25;7288582;19;153133;-51
2021/09/17 02:56:46;;;;;;;;;;;;;;;22.02;82.88;101359.00;7281063;19;154113;-51
2021/09/17 02:59:13;;;;;;;;;;;;;;;22.02;83.46;101349.72;7286410;19;151761;-51
2021/09/17 03:01:40;;;;;;;;;;;;;;;22.04;83.56;101361.47;7285826;19;153559;-51
2021/09/17 03:04:07;;;;;;;;;;;;;;;22.03;83.58;101359.81;7288413;19;154227;-52
2021/09/17 03:06:34;;;;;;;;;;;;;;;22.03;83.54;101352.19;7282990;19;153563;-51
2021/09/17 03:09:01;;;;;;;;;;;;;;;22.03;83.52;101357.00;7284195;19;153967;-51
2021/09/17 03:11:28;;;;;;;;;;;;;;;22.03;83.36;101352.19;7285723;19;152312;-51
2021/09/17 03:13:55;;;;;;;;;;;;;;;22.02;83.59;101347.72;7285029;19;153140;-51
2021/09/17 03:16:22;;;;;;;;;;;;;;;22.00;83.46;101341.56;7282607;19;153914;-51
2021/09/17 03:18:49;;;;;;;;;;;;;;;22.02;83.25;101353.34;7284201;19;151662;-51
2021/09/17 03:21:16;;;;;;;;;;;;;;;21.99;83.54;101339.88;7286296;19;152639;-51
2021/09/17 03:23:43;;;;;;;;;;;;;;;22.01;83.33;101342.41;7283005;19;153372;-51
2021/09/17 03:26:10;;;;;;;;;;;;;;;21.98;83.18;101345.84;7293538;19;151750;-51
2021/09/17 03:28:37;;;;;;;;;;;;;;;22.01;83.31;101339.59;7281831;19;153778;-52
2021/09/17 03:31:05;;;;;;;;;;;;;;;22.01;83.54;101346.06;7282456;19;151994;-51
2021/09/17 03:33:36;;;;;;;;;;;;;;;21.99;83.61;101328.63;7281360;19;152776;-52
2021/09/17 03:36:04;;;;;;;;;;;;;;;22.01;83.74;101331.16;7279613;19;154294;-52
2021/09/17 03:38:31;;;;;;;;;;;;;;;22.01;83.87;101331.16;7279091;19;154093;-51
2021/09/17 03:41:02;;;;;;;;;;;;;;;22.02;83.89;101327.19;7285760;19;153849;-52
2021/09/17 03:43:29;;;;;;;;;;;;;;;22.02;83.94;101321.56;7283249;19;152873;-52
2021/09/17 03:45:56;;;;;;;;;;;;;;;22.01;83.83;101326.34;7281913;19;151957;-51
2021/09/17 03:48:22;;;;;;;;;;;;;;;21.99;83.86;101328.63;7292444;19;154130;-52
2021/09/17 03:50:50;;;;;;;;;;;;;;;21.98;83.81;101329.81;7283799;19;151938;-52
2021/09/17 03:53:17;;;;;;;;;;;;;;;21.98;83.56;101321.34;7282165;19;155401;-52
2021/09/17 03:55:44;;;;;;;;;;;;;;;21.99;83.55;101323.00;7278555;19;152800;-51
2021/09/17 03:58:12;;;;;;;;;;;;;;;21.98;83.60;101321.34;7283932;19;152335;-51
2021/09/17 04:00:40;;;;;;;;;;;;;;;21.98;83.50;101312.91;7283183;19;153362;-52
2021/09/17 04:03:11;;;;;;;;;;;;;;;21.98;83.82;101317.72;7282328;19;153814;-52
2021/09/17 04:05:38;;;;;;;;;;;;;;;21.97;83.74;101316.88;7285246;19;152197;-52
2021/09/17 04:08:05;;;;;;;;;;;;;;;21.97;83.65;101313.22;7283515;19;153506;-52
2021/09/17 04:10:32;;;;;;;;;;;;;;;21.97;83.44;101314.06;7291159;19;153269;-52
2021/09/17 04:12:59;;;;;;;;;;;;;;;21.98;83.54;101307.28;7280443;19;153305;-51
2021/09/17 04:15:26;;;;;;;;;;;;;;;21.95;83.71;101310.69;7282241;19;153471;-52
2021/09/17 04:17:53;;;;;;;;;;;;;;;21.95;83.63;101310.69;7285475;19;151691;-51
2021/09/17 04:20:20;;;;;;;;;;;;;;;21.94;83.90;101309.03;7283072;19;151681;-52
2021/09/17 04:22:47;;;;;;;;;;;;;;;21.96;83.84;101314.34;7280740;19;153203;-51
2021/09/17 04:25:14;;;;;;;;;;;;;;;21.96;83.61;101317.16;7283576;19;152311;-51
2021/09/17 04:27:44;;;;;;;;;;;;;;;21.95;83.56;101307.06;7282524;19;152984;-52
2021/09/17 04:30:13;;;;;;;;;;;;;;;21.95;83.88;101307.88;7283285;19;155250;-51
2021/09/17 04:32:41;;;;;;;;;;;;;;;21.95;83.56;101315.50;7289944;19;152117;-52
2021/09/17 04:35:08;;;;;;;;;;;;;;;21.93;83.77;101304.56;7275929;19;153379;-52
2021/09/17 04:37:38;;;;;;;;;;;;;;;21.94;83.47;101306.22;7277588;19;153381;-51
2021/09/17 04:40:05;;;;;;;;;;;;;;;21.93;83.19;101313.00;7283381;19;152706;-50
2021/09/17 04:42:32;;;;;;;;;;;;;;;21.93;83.80;101306.53;7282682;19;153093;-51
2021/09/17 04:44:59;;;;;;;;;;;;;;;21.96;83.67;101308.72;7279463;19;152023;-52
2021/09/17 04:47:26;;;;;;;;;;;;;;;21.93;83.49;101307.38;7283185;19;153784;-52
2021/09/17 04:49:53;;;;;;;;;;;;;;;21.93;83.35;101296.13;7280145;19;152002;-51
2021/09/17 04:52:40;;;;;;;;;;;;;;;21.92;83.55;101296.38;7289994;19;151830;-52
2021/09/17 04:55:07;;;;;;;;;;;;;;;21.93;83.40;101300.91;7280062;19;159370;-50
2021/09/17 04:57:36;;;;;;;;;;;;;;;21.91;83.53;101292.75;7278863;19;152315;-51
2021/09/17 05:00:07;;;;;;;;;;;;;;;21.91;83.73;101295.56;7279784;19;155800;-52
2021/09/17 05:02:33;;;;;;;;;;;;;;;21.90;83.86;101304.28;7281076;19;154005;-51
2021/09/17 05:05:01;;;;;;;;;;;;;;;21.89;83.83;101294.22;7282135;19;152065;-52
2021/09/17 05:07:31;;;;;;;;;;;;;;;21.92;83.35;101297.22;7282627;19;153076;-52
2021/09/17 05:09:59;;;;;;;;;;;;;;;21.88;83.32;101298.16;7282663;19;153465;-51
2021/09/17 05:12:26;;;;;;;;;;;;;;;21.89;83.81;101300.66;7281141;19;151908;-51
2021/09/17 05:14:53;;;;;;;;;;;;;;;21.87;83.63;101296.47;7288315;19;153139;-52
2021/09/17 05:17:19;;;;;;;;;;;;;;;21.89;83.43;101299.84;7283061;19;154841;-51
2021/09/17 05:19:46;;;;;;;;;;;;;;;21.88;83.78;101299.00;7280980;19;153543;-51
2021/09/17 05:22:13;;;;;;;;;;;;;;;21.88;83.50;101296.19;7278163;19;153935;-51
2021/09/17 05:24:40;;;;;;;;;;;;;;;21.89;83.86;101294.22;7283361;19;152019;-52
2021/09/17 05:27:12;;;;;;;;;;;;;;;21.87;83.82;101297.31;7281570;19;153495;-51
2021/09/17 05:29:39;;;;;;;;;;;;;;;21.88;83.45;101289.72;7285953;19;154164;-51
2021/09/17 05:32:06;;;;;;;;;;;;;;;21.88;83.70;101289.72;7286379;19;151981;-51
2021/09/17 05:34:33;;;;;;;;;;;;;;;21.88;83.58;101289.72;7286480;19;152165;-52
2021/09/17 05:37:00;;;;;;;;;;;;;;;21.87;83.64;101286.06;7289563;19;153407;-51
2021/09/17 05:39:27;;;;;;;;;;;;;;;21.87;83.67;101283.25;7289233;19;153214;-51
2021/09/17 05:41:54;;;;;;;;;;;;;;;21.90;83.55;101293.03;7285341;19;154719;-52
2021/09/17 05:44:21;;;;;;;;;;;;;;;21.87;83.94;101277.63;7285899;19;151529;-52
2021/09/17 05:46:48;;;;;;;;;;;;;;;21.84;83.54;101277.41;7288960;19;152863;-52
2021/09/17 05:49:15;;;;;;;;;;;;;;;21.85;83.85;101274.28;7286241;19;153908;-51
2021/09/17 05:51:42;;;;;;;;;;;;;;;21.85;83.85;101279.91;7287366;19;152347;-51
2021/09/17 05:54:09;;;;;;;;;;;;;;;21.88;83.56;101281.28;7286851;19;153303;-51
2021/09/17 05:56:36;;;;;;;;;;;;;;;21.86;83.86;101278.75;7284402;19;153172;-52
2021/09/17 05:59:03;;;;;;;;;;;;;;;21.88;83.96;101282.13;7292877;19;152687;-51
2021/09/17 06:01:30;;;;;;;;;;;;;;;21.91;83.89;101286.28;7284889;19;153329;-52
2021/09/17 06:03:57;;;;;;;;;;;;;;;21.88;83.95;101281.28;7284562;19;153292;-52
2021/09/17 06:06:24;;;;;;;;;;;;;;;21.86;83.87;101284.38;7284085;19;152828;-52
2021/09/17 06:08:51;;;;;;;;;;;;;;;21.86;83.47;101287.19;7284412;19;153612;-51
2021/09/17 06:11:18;;;;;;;;;;;;;;;21.89;83.89;101282.94;7286809;19;152300;-51
2021/09/17 06:13:45;;;;;;;;;;;;;;;21.87;83.64;101282.41;7284383;19;154018;-51
2021/09/17 06:16:12;;;;;;;;;;;;;;;21.87;83.55;101274.81;7286208;19;152746;-51
2021/09/17 06:18:43;;;;;;;;;;;;;;;21.84;83.81;101281.06;7287290;19;151667;-51
2021/09/17 06:21:18;;;;;;;;;;;;;;;21.91;83.90;101280.66;7294160;19;153101;-51
2021/09/17 06:23:54;;;;;;;;;;;;;;;21.78;81.81;101282.28;7284094;19;151962;-51
2021/09/17 06:26:51;;;;;;;;;;;;;;;21.71;80.57;101279.06;7282251;19;153556;-51
2021/09/17 06:29:18;;;;;;;;;;;;;;;21.66;80.14;101279.16;7282107;19;154256;-51
2021/09/17 06:31:50;;;;;;;;;;;;;;;21.62;80.11;101276.09;7286252;19;152186;-51
2021/09/17 06:34:30;;;;;;;;;;;;;;;21.61;79.47;101282.03;7283552;19;153670;-51
2021/09/17 06:37:09;;;;;;;;;;;;;;;21.58;79.45;101291.06;7280617;19;153670;-52
2021/09/17 06:39:47;;;;;;;;;;;;;;;21.59;80.49;101293.59;7281782;19;151886;-51
2021/09/17 06:42:21;;;;;;;;;;;;;;;21.51;79.54;101291.47;7285537;19;152353;-51
2021/09/17 06:44:52;;;;;;;;;;;;;;;21.50;80.44;101286.16;7289836;19;152286;-51
2021/09/17 06:47:19;;;;;;;;;;;;;;;21.51;80.72;101288.69;7283247;19;153329;-51
2021/09/17 06:49:46;;;;;;;;;;;;;;;21.53;80.98;101282.75;7283171;19;153086;-51
2021/09/17 06:52:13;;;;;;;;;;;;;;;21.52;80.58;101283.88;7283816;19;152301;-51
2021/09/17 06:54:44;;;;;;;;;;;;;;;21.54;80.70;101290.03;7284587;19;152675;-51
2021/09/17 06:57:12;;;;;;;;;;;;;;;21.51;81.22;101287.84;7284877;19;153452;-51
2021/09/17 06:59:43;;;;;;;;;;;;;;;21.51;81.08;101288.69;7286655;19;152101;-50
2021/09/17 07:02:10;;;;;;;;;;;;;;;21.53;80.79;101282.75;7279483;19;155203;-51
2021/09/17 07:04:39;;;;;;;;;;;;;;;21.59;80.90;101287.97;7294241;19;153930;-51
2021/09/17 07:07:06;;;;;;;;;;;;;;;21.61;80.94;101282.88;7286314;19;152707;-52
2021/09/17 07:09:33;;;;;;;;;;;;;;;21.57;81.74;101283.81;7286150;19;153874;-51
2021/09/17 07:11:59;;;;;;;;;;;;;;;21.61;80.91;101280.06;7285521;19;151870;-51
2021/09/17 07:14:26;;;;;;;;;;;;;;;21.61;80.63;101284.84;7285607;19;152761;-52
2021/09/17 07:16:53;;;;;;;;;;;;;;;21.57;81.21;101286.63;7283832;19;154007;-52
2021/09/17 07:19:20;;;;;;;;;;;;;;;21.56;80.86;101284.94;7285970;19;151940;-52
2021/09/17 07:21:47;;;;;;;;;;;;;;;21.52;81.28;101284.72;7286681;19;155817;-50
2021/09/17 07:24:13;;;;;;;;;;;;;;;21.51;80.97;101288.69;7285217;19;153255;-51
2021/09/17 07:26:40;;;;;;;;;;;;;;;21.49;80.67;101282.50;7294528;19;152498;-51
2021/09/17 07:29:07;;;;;;;;;;;;;;;21.49;80.71;101290.09;7283686;19;152941;-51
2021/09/17 07:31:34;;;;;;;;;;;;;;;21.52;81.10;101290.34;7285763;19;151863;-51
2021/09/17 07:34:00;;;;;;;;;;;;;;;21.51;80.92;101274.63;7282577;19;152730;-51
2021/09/17 07:36:27;;;;;;;;;;;;;;;21.49;80.96;101281.66;7283814;19;153947;-51
2021/09/17 07:38:54;;;;;;;;;;;;;;;21.55;80.60;101281.28;7285635;19;153008;-51
2021/09/17 07:41:21;;;;;;;;;;;;;;;21.57;80.32;101278.19;7286328;19;152132;-51
2021/09/17 07:43:48;;;;;;;;;;;;;;;21.54;80.54;101287.22;7284707;19;153399;-50
2021/09/17 07:46:14;;;;;;;;;;;;;;;21.56;80.59;101284.94;7286894;19;152455;-51
2021/09/17 07:48:41;;;;;;;;;;;;;;;21.54;80.62;101288.06;7291971;19;158561;-51
2021/09/17 07:51:08;;;;;;;;;;;;;;;21.53;80.57;101277.94;7285629;19;152098;-53
2021/09/17 07:53:35;;;;;;;;;;;;;;;21.53;80.59;101283.56;7276917;19;152095;-51
2021/09/17 07:56:02;;;;;;;;;;;;;;;21.54;80.44;101288.06;7282239;19;152196;-51
2021/09/17 07:58:29;;;;;;;;;;;;;;;21.56;80.45;101284.94;7284606;19;153471;-51
2021/09/17 08:00:55;;;;;;;;;;;;;;;21.55;80.63;101288.88;7285668;19;151868;-51
2021/09/17 08:03:28;;;;;;;;;;;;;;;21.55;80.52;101292.53;7281213;19;154374;-51
2021/09/17 08:05:56;;;;;;;;;;;;;;;21.56;80.46;101279.31;7286798;19;152061;-52
2021/09/17 08:08:23;;;;;;;;;;;;;;;21.55;80.31;101288.88;7288138;19;152265;-51
2021/09/17 08:10:50;;;;;;;;;;;;;;;21.53;80.26;101289.19;7289600;19;154114;-51
2021/09/17 08:13:17;;;;;;;;;;;;;;;21.53;80.18;101299.63;7285277;19;153383;-51
2021/09/17 08:15:44;;;;;;;;;;;;;;;21.51;80.18;101294.28;7284708;19;153257;-51
2021/09/17 08:18:11;;;;;;;;;;;;;;;21.54;80.15;101292.84;7285620;19;152613;-51
2021/09/17 08:20:40;;;;;;;;;;;;;;;21.53;80.23;101294.81;7282683;19;152364;-51
2021/09/17 08:23:07;;;;;;;;;;;;;;;21.51;79.96;101288.69;7285005;19;153940;-51
2021/09/17 08:25:33;;;;;;;;;;;;;;;21.52;79.97;101295.13;7285578;19;156631;-51
2021/09/17 08:28:00;;;;;;;;;;;;;;;21.53;80.38;101294.00;7286185;19;153973;-51
2021/09/17 08:30:27;;;;;;;;;;;;;;;21.53;79.87;101294.81;7283353;19;153680;-51
2021/09/17 08:32:54;;;;;;;;;;;;;;;21.53;79.89;101297.63;7293698;19;152243;-58
2021/09/17 08:35:21;;;;;;;;;;;;;;;21.55;80.19;101300.97;7278273;19;153984;-51
2021/09/17 08:37:48;;;;;;;;;;;;;;;21.53;79.94;101306.06;7284719;19;151786;-50
2021/09/17 08:40:15;;;;;;;;;;;;;;;21.52;79.99;101310.03;7285886;19;152631;-51
2021/09/17 08:42:43;;;;;;;;;;;;;;;21.50;80.01;101306.69;7284600;19;152601;-51
2021/09/17 08:45:10;;;;;;;;;;;;;;;21.52;79.95;101300.75;7284548;19;151822;-51
2021/09/17 08:47:36;;;;;;;;;;;;;;;21.52;80.12;101295.13;7284930;19;152583;-51
2021/09/17 08:50:04;;;;;;;;;;;;;;;21.52;80.28;101307.22;7283695;19;153780;-51
2021/09/17 08:52:30;;;;;;;;;;;;;;;21.54;79.99;101310.53;7284925;19;151712;-51
2021/09/17 08:55:01;;;;;;;;;;;;;;;21.52;80.42;101303.56;7287814;19;153072;-51
2021/09/17 08:57:27;;;;;;;;;;;;;;;21.53;80.37;101300.44;7282620;19;151654;-50
2021/09/17 08:59:54;;;;;;;;;;;;;;;21.54;80.25;101302.09;7285078;19;152970;-51
2021/09/17 09:02:25;;;;;;;;;;;;;;;21.55;80.07;101298.16;7279004;19;154148;-51
2021/09/17 09:05:03;;;;;;;;;;;;;;;21.56;80.15;101299.84;7281076;19;155502;-52
2021/09/17 09:07:39;;;;;;;;;;;;;;;21.55;79.91;101294.50;7282465;19;153909;-51
2021/09/17 09:10:08;;;;;;;;;;;;;;;21.57;80.08;101290.25;7284188;19;153024;-52
2021/09/17 09:12:37;;;;;;;;;;;;;;;21.56;80.34;101293.38;7283411;19;152391;-51
2021/09/17 09:15:26;;;;;;;;;;;;;;;21.55;79.99;101284.09;7286882;19;151836;-52
2021/09/17 09:17:57;;;;;;;;;;;;;;;21.54;80.29;101290.03;7284525;19;151891;-51
2021/09/17 09:20:35;;;;;;;;;;;;;;;21.55;80.19;101286.06;7282460;19;153580;-51
2021/09/17 09:23:06;;;;;;;;;;;;;;;21.54;79.97;101285.25;7284338;19;152667;-51
2021/09/17 09:25:47;;;;;;;;;;;;;;;21.54;79.90;101285.25;7283804;19;151937;-51
2021/09/17 09:28:15;;;;;;;;;;;;;;;21.58;79.79;101289.09;7285995;19;153395;-51
2021/09/17 09:30:42;;;;;;;;;;;;;;;21.54;79.92;101285.25;7282151;19;154283;-51
2021/09/17 09:33:24;;;;;;;;;;;;;;;21.56;79.88;101285.78;7282219;19;153871;-51
2021/09/17 09:35:55;;;;;;;;;;;;;;;21.54;79.57;101290.03;7282650;19;152261;-51
2021/09/17 09:38:35;;;;;;;;;;;;;;;21.56;79.59;101288.59;7290312;19;152648;-51
2021/09/17 09:41:04;;;;;;;;;;;;;;;21.58;79.39;101294.72;7282553;19;151992;-51
2021/09/17 09:43:31;;;;;;;;;;;;;;;21.58;79.66;101305.97;7282667;19;152175;-51
2021/09/17 09:46:17;;;;;;;;;;;;;;;21.59;79.44;101292.75;7282182;19;152024;-51
2021/09/17 09:48:59;;;;;;;;;;;;;;;21.60;79.71;101288.81;7283618;19;152256;-51
2021/09/17 09:51:26;;;;;;;;;;;;;;;21.59;79.76;101295.56;7283623;19;153995;-51
2021/09/17 09:53:53;;;;;;;;;;;;;;;21.59;79.35;101287.97;7283354;19;152952;-50
2021/09/17 09:56:20;;;;;;;;;;;;;;;21.59;79.32;101287.97;7282346;19;153004;-51
2021/09/17 09:58:48;;;;;;;;;;;;;;;21.61;79.56;101282.03;7281427;19;154847;-51
2021/09/17 10:01:16;;;;;;;;;;;;;;;21.61;79.31;101288.50;7290218;19;152036;-51
2021/09/17 10:03:47;;;;;;;;;;;;;;;21.62;79.24;101281.72;7279067;19;152308;-52
2021/09/17 10:06:14;;;;;;;;;;;;;;;21.64;79.64;101287.03;7280671;19;152741;-51
2021/09/17 10:08:41;;;;;;;;;;;;;;;21.63;79.10;101291.81;7282224;19;151617;-52
2021/09/17 10:11:08;;;;;;;;;;;;;;;21.64;79.25;101287.88;7280376;19;153149;-52
2021/09/17 10:13:36;;;;;;;;;;;;;;;21.65;79.21;101292.38;7284419;19;151722;-52
2021/09/17 10:16:04;;;;;;;;;;;;;;;21.65;79.28;101289.56;7289677;19;153146;-52
2021/09/17 10:18:31;;;;;;;;;;;;;;;21.68;79.29;101280.50;7287850;19;152910;-51
2021/09/17 10:20:57;;;;;;;;;;;;;;;21.67;79.13;101284.44;7288539;19;151582;-51
2021/09/17 10:23:25;;;;;;;;;;;;;;;21.68;79.10;101286.13;7295684;19;152877;-52
2021/09/17 10:26:05;;;;;;;;;;;;;;;21.69;79.10;101282.16;7290684;19;151578;-52
2021/09/17 10:28:33;;;;;;;;;;;;;;;21.71;79.09;101284.69;7289114;19;152771;-52
2021/09/17 10:31:13;;;;;;;;;;;;;;;21.70;79.17;101283.84;7286780;19;153961;-52
2021/09/17 10:33:40;;;;;;;;;;;;;;;21.70;78.89;101283.84;7287121;19;152491;-52
2021/09/17 10:36:07;;;;;;;;;;;;;;;21.72;79.07;101278.72;7289350;19;153176;-52
2021/09/17 10:38:34;;;;;;;;;;;;;;;21.72;78.65;101278.72;7287877;19;155156;-51
2021/09/17 10:41:04;;;;;;;;;;;;;;;21.73;78.44;101276.75;7288739;19;152118;-51
2021/09/17 10:43:37;;;;;;;;;;;;;;;21.72;78.56;101275.91;7288266;19;153545;-52
2021/09/17 10:46:20;;;;;;;;;;;;;;;21.74;78.98;101270.84;7294089;19;153316;-52
2021/09/17 10:48:51;;;;;;;;;;;;;;;21.74;78.72;101275.63;7289000;19;151904;-52
2021/09/17 10:51:35;;;;;;;;;;;;;;;21.75;78.97;101271.69;7288110;19;157006;-52
2021/09/17 10:54:03;;;;;;;;;;;;;;;21.76;78.51;101270.50;7288086;19;151584;-51
2021/09/17 10:56:48;;;;;;;;;;;;;;;21.76;78.33;101272.50;7286725;19;152664;-52
2021/09/17 10:59:27;;;;;;;;;;;;;;;21.77;78.57;101274.16;7287001;19;153430;-52
2021/09/17 11:02:03;;;;;;;;;;;;;;;21.80;78.60;101270.75;7288901;19;151804;-52
2021/09/17 11:04:44;;;;;;;;;;;;;;;21.80;78.15;101263.16;7285671;19;152939;-51
2021/09/17 11:07:17;;;;;;;;;;;;;;;21.78;78.56;101262.59;7282720;19;153850;-51
2021/09/17 11:09:48;;;;;;;;;;;;;;;21.81;78.34;101269.56;7294108;19;152186;-52
2021/09/17 11:12:28;;;;;;;;;;;;;;;21.81;78.31;101266.75;7286219;19;152196;-52
2021/09/17 11:15:07;;;;;;;;;;;;;;;21.82;78.27;101260.84;7285784;19;151891;-51
2021/09/17 11:17:44;;;;;;;;;;;;;;;21.83;78.28;101258.88;7286629;19;152327;-52
2021/09/17 11:20:17;;;;;;;;;;;;;;;21.86;78.08;101246.97;7286309;19;153666;-52
2021/09/17 11:23:01;;;;;;;;;;;;;;;21.87;78.17;101245.84;7287540;19;152136;-52
2021/09/17 11:25:30;;;;;;;;;;;;;;;21.89;78.12;101241.59;7286824;19;153383;-51
2021/09/17 11:27:57;;;;;;;;;;;;;;;21.91;78.00;101253.34;7286197;19;152651;-52
2021/09/17 11:30:27;;;;;;;;;;;;;;;21.91;78.15;101244.06;7295666;19;151941;-52
2021/09/17 11:32:55;;;;;;;;;;;;;;;21.91;78.36;101232.81;7285512;19;153572;-52
2021/09/17 11:35:21;;;;;;;;;;;;;;;21.91;77.91;101230.00;7286003;19;151985;-52
2021/09/17 11:37:49;;;;;;;;;;;;;;;21.92;78.21;101237.31;7286013;19;153249;-51
2021/09/17 11:40:16;;;;;;;;;;;;;;;21.91;77.74;101230.84;7284701;19;153906;-53
2021/09/17 11:42:43;;;;;;;;;;;;;;;21.92;77.72;101235.34;7286067;19;151747;-51
2021/09/17 11:45:14;;;;;;;;;;;;;;;21.93;77.87;101234.22;7287495;19;153733;-52
2021/09/17 11:47:44;;;;;;;;;;;;;;;21.93;77.54;101228.59;7286577;19;154005;-51
2021/09/17 11:50:14;;;;;;;;;;;;;;;21.93;77.76;101224.94;7287277;19;151952;-51
2021/09/17 11:52:44;;;;;;;;;;;;;;;21.93;77.88;101224.94;7293043;19;153450;-51
2021/09/17 11:55:13;;;;;;;;;;;;;;;21.93;77.90;101219.31;7283670;19;152217;-51
2021/09/17 11:57:44;;;;;;;;;;;;;;;21.92;77.52;101224.09;7287379;19;153352;-51
2021/09/17 12:00:12;;;;;;;;;;;;;;;21.91;77.89;101222.41;7285052;19;157628;-51
2021/09/17 12:02:39;;;;;;;;;;;;;;;21.92;77.54;101214.81;7285729;19;152244;-51
2021/09/17 12:05:08;;;;;;;;;;;;;;;21.92;77.68;101210.00;7286862;19;152888;-51
2021/09/17 12:07:36;;;;;;;;;;;;;;;21.91;77.45;101211.16;7287077;19;154846;-51
2021/09/17 12:10:10;;;;;;;;;;;;;;;21.91;77.42;101201.88;7286673;19;152313;-51
2021/09/17 12:12:38;;;;;;;;;;;;;;;21.92;77.77;101201.56;7285978;19;153427;-51
2021/09/17 12:15:06;;;;;;;;;;;;;;;21.93;77.43;101199.63;7291088;19;152717;-51
2021/09/17 12:17:33;;;;;;;;;;;;;;;21.93;77.35;101205.25;7285990;19;153722;-51
2021/09/17 12:20:01;;;;;;;;;;;;;;;21.94;77.45;101212.56;7284407;19;153488;-51
2021/09/17 12:22:35;;;;;;;;;;;;;;;21.93;77.53;101203.28;7286185;19;151698;-50
2021/09/17 12:25:04;;;;;;;;;;;;;;;21.94;77.47;101201.31;7284952;19;153811;-50
2021/09/17 12:27:31;;;;;;;;;;;;;;;21.91;77.57;101197.09;7284445;19;153321;-51
2021/09/17 12:29:59;;;;;;;;;;;;;;;21.94;77.47;101212.56;7285236;19;151917;-51
2021/09/17 12:32:26;;;;;;;;;;;;;;;21.94;77.70;101195.69;7287399;19;153736;-51
2021/09/17 12:35:03;;;;;;;;;;;;;;;21.95;77.44;101197.31;7283653;19;152894;-51
2021/09/17 12:37:30;;;;;;;;;;;;;;;21.93;77.37;101185.56;7289391;19;152104;-49
2021/09/17 12:40:14;;;;;;;;;;;;;;;21.92;77.61;101198.75;7283155;19;153489;-50